createdAt,value
2023-03-07T00:00:56.557Z,0.00
2023-03-07T00:05:56.640Z,0.00
2023-03-07T00:10:56.450Z,0.00
2023-03-07T00:15:56.475Z,0.00
2023-03-07T00:20:56.334Z,0.00
2023-03-07T00:25:56.272Z,0.00
2023-03-07T00:30:56.257Z,0.00
2023-03-07T00:35:56.635Z,0.00
2023-03-07T00:40:56.070Z,0.00
2023-03-07T00:45:56.135Z,0.00
2023-03-07T00:50:55.968Z,0.00
2023-03-07T00:55:58.901Z,0.00
2023-03-07T01:00:55.809Z,0.00
2023-03-07T01:05:55.752Z,0.00
2023-03-07T01:10:55.699Z,0.00
2023-03-07T01:15:55.797Z,0.00
2023-03-07T01:20:55.539Z,0.00
2023-03-07T01:25:55.480Z,0.00
2023-03-07T01:30:55.386Z,0.00
2023-03-07T01:35:55.600Z,0.00
2023-03-07T01:40:55.365Z,0.00
2023-03-07T01:45:55.530Z,0.00
2023-03-07T01:50:55.193Z,0.00
2023-03-07T01:55:58.145Z,0.00
2023-03-07T02:00:55.060Z,0.00
2023-03-07T02:05:55.004Z,0.00
2023-03-07T02:10:54.886Z,0.00
2023-03-07T02:15:54.852Z,0.00
2023-03-07T02:20:54.747Z,0.00
2023-03-07T02:25:54.784Z,0.00
2023-03-07T02:30:54.600Z,0.00
2023-03-07T02:35:54.755Z,0.00
2023-03-07T02:40:54.494Z,0.00
2023-03-07T02:45:54.543Z,0.00
2023-03-07T02:50:54.356Z,0.00
2023-03-07T02:55:57.335Z,0.00
2023-03-07T03:00:54.225Z,0.00
2023-03-07T03:05:54.174Z,0.00
2023-03-07T03:10:54.126Z,0.00
2023-03-07T03:15:54.092Z,0.00
2023-03-07T03:20:53.949Z,0.00
2023-03-07T03:25:53.932Z,0.00
2023-03-07T03:30:53.842Z,0.00
2023-03-07T03:35:54.457Z,0.00
2023-03-07T03:40:53.666Z,0.00
2023-03-07T03:45:53.755Z,0.00
2023-03-07T03:50:53.615Z,0.00
2023-03-07T03:55:56.581Z,0.00
2023-03-07T04:00:53.514Z,0.00
2023-03-07T04:05:53.414Z,0.00
2023-03-07T04:10:53.264Z,0.00
2023-03-07T04:15:53.252Z,0.00
2023-03-07T04:20:53.161Z,0.00
2023-03-07T04:26:00.950Z,0.00
2023-03-07T04:31:00.006Z,0.00
2023-03-07T04:36:00.842Z,0.00
2023-03-07T04:40:52.943Z,0.00
2023-03-07T04:45:53.010Z,0.00
2023-03-07T04:50:52.772Z,0.00
2023-03-07T04:55:55.766Z,0.00
2023-03-07T05:00:52.657Z,0.00
2023-03-07T05:05:52.718Z,0.00
2023-03-07T05:10:52.482Z,0.00
2023-03-07T05:15:52.503Z,0.00
2023-03-07T05:20:52.451Z,0.00
2023-03-07T05:25:52.330Z,0.00
2023-03-07T05:30:52.270Z,0.00
2023-03-07T05:35:52.299Z,0.00
2023-03-07T05:40:52.130Z,0.00
2023-03-07T05:45:52.633Z,5.62
2023-03-07T05:50:51.995Z,5.62
2023-03-07T05:55:54.987Z,11.25
2023-03-07T06:00:51.868Z,22.50
2023-03-07T06:05:51.849Z,33.75
2023-03-07T06:10:51.941Z,45.00
2023-03-07T06:15:51.878Z,56.25
2023-03-07T06:20:51.643Z,67.50
2023-03-07T06:25:51.581Z,67.50
2023-03-07T06:30:51.491Z,84.38
2023-03-07T06:35:51.529Z,101.25
2023-03-07T06:40:51.327Z,106.88
2023-03-07T06:45:51.443Z,118.12
2023-03-07T06:50:51.363Z,129.38
2023-03-07T06:55:54.335Z,123.75
2023-03-07T07:00:51.386Z,129.38
2023-03-07T07:05:51.104Z,151.88
2023-03-07T07:10:51.039Z,185.62
2023-03-07T07:15:51.145Z,241.88
2023-03-07T07:20:50.805Z,253.12
2023-03-07T07:25:51.453Z,264.38
2023-03-07T07:30:50.696Z,286.88
2023-03-07T07:35:50.823Z,309.38
2023-03-07T07:40:50.881Z,326.25
2023-03-07T07:45:50.635Z,315.00
2023-03-07T07:50:50.488Z,326.25
2023-03-07T07:55:53.418Z,331.88
2023-03-07T08:00:50.283Z,337.50
2023-03-07T08:05:50.279Z,337.50
2023-03-07T08:10:50.176Z,348.75
2023-03-07T08:15:50.258Z,360.00
2023-03-07T08:20:50.157Z,382.50
2023-03-07T08:25:50.007Z,416.25
2023-03-07T08:30:49.992Z,399.38
2023-03-07T08:35:49.971Z,461.25
2023-03-07T08:40:50.046Z,405.00
2023-03-07T08:45:49.771Z,399.38
2023-03-07T08:50:49.619Z,405.00
2023-03-07T08:55:52.675Z,365.62
2023-03-07T09:00:49.513Z,292.50
2023-03-07T09:05:49.503Z,320.62
2023-03-07T09:10:49.348Z,438.75
2023-03-07T09:15:49.479Z,371.25
2023-03-07T09:20:49.216Z,472.50
2023-03-07T09:25:49.214Z,562.50
2023-03-07T09:30:49.129Z,495.00
2023-03-07T09:35:49.482Z,528.75
2023-03-07T09:40:48.978Z,573.75
2023-03-07T09:45:49.268Z,562.50
2023-03-07T09:50:56.379Z,416.25
2023-03-07T09:55:59.632Z,455.62
2023-03-07T10:00:55.703Z,618.75
2023-03-07T10:05:48.678Z,438.75
2023-03-07T10:10:48.772Z,528.75
2023-03-07T10:15:48.722Z,472.50
2023-03-07T10:20:48.459Z,466.88
2023-03-07T10:25:48.530Z,399.38
2023-03-07T10:30:48.324Z,388.12
2023-03-07T10:35:48.312Z,472.50
2023-03-07T10:40:48.216Z,568.12
2023-03-07T10:45:48.222Z,663.75
2023-03-07T10:50:48.066Z,568.12
2023-03-07T10:55:51.070Z,540.00
2023-03-07T11:00:47.960Z,579.38
2023-03-07T11:05:47.886Z,579.38
2023-03-07T11:10:47.909Z,585.00
2023-03-07T11:15:47.779Z,596.25
2023-03-07T11:20:47.627Z,590.62
2023-03-07T11:25:47.655Z,590.62
2023-03-07T11:30:47.545Z,551.25
2023-03-07T11:35:47.572Z,540.00
2023-03-07T11:40:47.369Z,523.12
2023-03-07T11:45:47.332Z,511.88
2023-03-07T11:50:47.362Z,590.62
2023-03-07T11:55:50.213Z,590.62
2023-03-07T12:00:47.100Z,635.62
2023-03-07T12:05:47.142Z,585.00
2023-03-07T12:10:46.948Z,607.50
2023-03-07T12:15:46.962Z,568.12
2023-03-07T12:20:46.797Z,579.38
2023-03-07T12:25:46.770Z,517.50
2023-03-07T12:30:46.848Z,348.75
2023-03-07T12:35:46.882Z,315.00
2023-03-07T12:40:46.537Z,427.50
2023-03-07T12:45:46.683Z,551.25
2023-03-07T12:50:46.420Z,450.00
2023-03-07T12:55:49.454Z,556.88
2023-03-07T13:00:46.354Z,641.25
2023-03-07T13:05:46.228Z,675.00
2023-03-07T13:10:46.205Z,613.12
2023-03-07T13:15:46.270Z,607.50
2023-03-07T13:20:46.022Z,556.88
2023-03-07T13:25:46.176Z,585.00
2023-03-07T13:30:53.777Z,551.25
2023-03-07T13:35:46.034Z,562.50
2023-03-07T13:40:45.792Z,534.38
2023-03-07T13:45:45.897Z,511.88
2023-03-07T13:50:45.630Z,416.25
2023-03-07T13:55:48.600Z,343.12
2023-03-07T14:00:45.497Z,292.50
2023-03-07T14:05:45.495Z,264.38
2023-03-07T14:10:45.325Z,180.00
2023-03-07T14:15:45.339Z,168.75
2023-03-07T14:20:45.336Z,168.75
2023-03-07T14:25:45.276Z,163.12
2023-03-07T14:30:45.185Z,151.88
2023-03-07T14:35:45.097Z,163.12
2023-03-07T14:40:44.955Z,174.38
2023-03-07T14:45:45.032Z,151.88
2023-03-07T14:50:44.810Z,247.50
2023-03-07T14:55:47.777Z,281.25
2023-03-07T15:00:44.728Z,230.62
2023-03-07T15:05:44.819Z,196.88
2023-03-07T15:10:44.595Z,163.12
2023-03-07T15:15:44.549Z,140.62
2023-03-07T15:20:52.371Z,90.00
2023-03-07T15:25:51.798Z,95.62
2023-03-07T15:30:53.789Z,61.88
2023-03-07T15:35:44.313Z,50.62
2023-03-07T15:40:44.340Z,56.25
2023-03-07T15:45:44.136Z,61.88
2023-03-07T15:50:44.078Z,45.00
2023-03-07T15:55:47.021Z,39.38
2023-03-07T16:00:44.042Z,33.75
2023-03-07T16:05:51.785Z,28.12
2023-03-07T16:10:43.772Z,28.12
2023-03-07T16:15:43.803Z,22.50
2023-03-07T16:20:43.763Z,16.88
2023-03-07T16:25:43.689Z,16.88
2023-03-07T16:30:43.464Z,11.25
2023-03-07T16:35:44.134Z,5.62
2023-03-07T16:40:43.423Z,5.62
2023-03-07T16:45:43.368Z,5.62
2023-03-07T16:50:43.198Z,5.62
2023-03-07T16:55:46.252Z,0.00
2023-03-07T17:00:43.194Z,0.00
2023-03-07T17:05:43.223Z,0.00
2023-03-07T17:10:44.689Z,0.00
2023-03-07T17:15:43.014Z,0.00
2023-03-07T17:20:42.833Z,0.00
2023-03-07T17:25:43.125Z,0.00
2023-03-07T17:30:42.680Z,0.00
2023-03-07T17:35:42.816Z,0.00
2023-03-07T17:40:42.600Z,0.00
2023-03-07T17:45:43.010Z,0.00
2023-03-07T17:50:42.449Z,0.00
2023-03-07T17:55:45.416Z,0.00
2023-03-07T18:00:42.356Z,0.00
2023-03-07T18:05:42.832Z,0.00
2023-03-07T18:10:42.217Z,0.00
2023-03-07T18:15:42.287Z,0.00
2023-03-07T18:20:42.017Z,0.00
2023-03-07T18:25:42.116Z,0.00
2023-03-07T18:30:41.947Z,0.00
2023-03-07T18:35:42.006Z,0.00
2023-03-07T18:40:41.875Z,0.00
2023-03-07T18:45:42.159Z,0.00
2023-03-07T18:50:41.740Z,0.00
2023-03-07T18:55:44.741Z,0.00
2023-03-07T19:00:41.664Z,0.00
2023-03-07T19:05:41.566Z,0.00
2023-03-07T19:10:41.527Z,0.00
2023-03-07T19:15:41.350Z,0.00
2023-03-07T19:20:42.660Z,0.00
2023-03-07T19:25:41.332Z,0.00
2023-03-07T19:30:41.167Z,0.00
2023-03-07T19:35:41.213Z,0.00
2023-03-07T19:40:40.981Z,0.00
2023-03-07T19:45:41.042Z,0.00
2023-03-07T19:50:40.908Z,0.00
2023-03-07T19:55:43.962Z,0.00
2023-03-07T20:00:40.925Z,0.00
2023-03-07T20:05:40.779Z,0.00
2023-03-07T20:10:42.095Z,0.00
2023-03-07T20:15:42.861Z,0.00
2023-03-07T20:20:40.639Z,0.00
2023-03-07T20:25:40.519Z,0.00
2023-03-07T20:30:41.826Z,0.00
2023-03-07T20:35:40.343Z,0.00
2023-03-07T20:40:47.738Z,0.00
2023-03-07T20:45:48.671Z,0.00
2023-03-07T20:50:47.614Z,0.00
2023-03-07T20:55:43.921Z,0.00
2023-03-07T21:00:39.995Z,0.00
2023-03-07T21:05:39.922Z,0.00
2023-03-07T21:10:40.447Z,0.00
2023-03-07T21:15:40.157Z,0.00
2023-03-07T21:20:40.000Z,0.00
2023-03-07T21:25:40.139Z,0.00
2023-03-07T21:30:39.578Z,0.00
2023-03-07T21:35:40.132Z,0.00
2023-03-07T21:40:39.428Z,0.00
2023-03-07T21:45:39.848Z,0.00
2023-03-07T21:50:39.400Z,0.00
2023-03-07T21:55:42.418Z,0.00
2023-03-07T22:00:39.327Z,0.00
2023-03-07T22:05:39.165Z,0.00
2023-03-07T22:10:39.034Z,0.00
2023-03-07T22:15:39.023Z,0.00
2023-03-07T22:20:39.042Z,0.00
2023-03-07T22:25:39.181Z,0.00
2023-03-07T22:30:38.779Z,0.00
2023-03-07T22:35:38.839Z,0.00
2023-03-07T22:40:38.638Z,0.00
2023-03-07T22:45:38.691Z,0.00
2023-03-07T22:50:38.792Z,0.00
2023-03-07T22:55:41.962Z,0.00
2023-03-07T23:00:38.397Z,0.00
2023-03-07T23:05:38.435Z,0.00
2023-03-07T23:10:38.386Z,0.00
2023-03-07T23:15:38.322Z,0.00
2023-03-07T23:20:38.169Z,0.00
2023-03-07T23:25:38.176Z,0.00
2023-03-07T23:30:38.029Z,0.00
2023-03-07T23:35:38.137Z,0.00
2023-03-07T23:40:37.887Z,0.00
2023-03-07T23:45:37.873Z,0.00
2023-03-07T23:50:37.750Z,0.00
2023-03-07T23:55:40.737Z,0.00
